world map with NLV marked

NLV - Airport

This information may not be accurate or current and is not valid for navigation or flight planning. No warranty of fitness for any purpose is made or implied.

flag of Mykolaivflag of Ukraine

Donate via PayPal

Additional information is available on the NEW Great Circle Mapper

Location
City:  Nikolaev, Mykolaiv, Ukraine
Name:Nikolaev International Airport
ICAO / IATA:UKON / NLV

Details
Type:Airport (Aerodrome, Airfield)
Use:Public/Civil
Latitude:47°03'28"N (47.057900)
Longitude:31°55'11"E (31.919825)
Datum:WGS 1984
Elevation:184 ft (56 m)
Runways:2
Longest:8438 × 144 ft (2572 × 44 m)

Time
Timezone:UTC+2 (DST+5)
Local Time:

Weather
METAR:UKON  160605Z 23005MPS 200V300 CAVOK M06/M11 Q1005 R22/090065 NOSIG
TAF:UKON  (expired)

Related Locations
Nearby:
Farthest:NEMO: 11292 mi / 18172 km
Pacific Ocean [Oceanic Pole of Inaccessibility (Point Nemo)]

Find:

   beyond  
but within

Other Information
Maps:
Sources:

  


 


Great Circle Mapper   Great Circle Mapper
Great Circle Mapper FAQ   Great Circle Mapper FAQ
  Karl's Home Page
KLSē   KLSē Home
   GC on Facebook
Airlines of the World   Airlines of the World
Donate via PayPal


Copyright © 2004-2019, Karl L. Swartz. All rights reserved.
All trademarks mentioned herein belong to their respective owners.

Please see credits for attribution and copyright information.

Karl Swartz <karl@kls2.com>
  Powered by FreeBSD
Valid HTML 4.01!
Labeled with ICRA
hCard Microformat
Geo Microformat